createdAt,value
2022-11-03T00:01:41.157Z,13.00
2022-11-03T00:11:47.653Z,12.50
2022-11-03T00:21:51.359Z,11.90
2022-11-03T00:31:55.032Z,12.80
2022-11-03T00:41:58.817Z,10.40
2022-11-03T00:52:02.581Z,9.50
2022-11-03T01:02:06.501Z,10.70
2022-11-03T01:12:19.002Z,8.00
2022-11-03T01:22:24.195Z,9.30
2022-11-03T01:32:28.586Z,6.70
2022-11-03T01:42:32.259Z,6.10
2022-11-03T01:52:53.865Z,6.40
2022-11-03T02:02:57.672Z,7.20
2022-11-03T02:13:04.190Z,7.10
2022-11-03T02:23:40.222Z,6.00
2022-11-03T02:33:56.901Z,6.40
2022-11-03T02:44:03.231Z,5.60
2022-11-03T02:54:16.841Z,6.10
2022-11-03T03:04:36.425Z,6.70
2022-11-03T03:14:42.633Z,6.30
2022-11-03T03:24:54.039Z,6.70
2022-11-03T03:35:00.958Z,7.10
2022-11-03T03:45:06.155Z,7.50
2022-11-03T03:55:18.509Z,5.90
2022-11-03T04:05:22.175Z,6.40
2022-11-03T04:15:44.728Z,6.10
2022-11-03T04:25:54.471Z,6.50
2022-11-03T04:36:00.014Z,7.00
2022-11-03T04:46:04.448Z,6.00
2022-11-03T04:56:15.554Z,6.00
2022-11-03T05:06:23.435Z,5.90
2022-11-03T05:16:27.345Z,6.10
2022-11-03T05:26:34.604Z,8.20
2022-11-03T05:36:38.947Z,6.90
2022-11-03T05:46:42.637Z,7.10
2022-11-03T05:56:46.612Z,7.80
2022-11-03T06:06:56.278Z,9.30
2022-11-03T06:17:10.820Z,8.50
2022-11-03T06:27:22.819Z,8.50
2022-11-03T06:37:31.466Z,8.70
2022-11-03T06:47:35.448Z,9.10
2022-11-03T06:57:42.366Z,11.60
2022-11-03T07:07:47.488Z,10.10
2022-11-03T07:17:52.267Z,10.00
2022-11-03T07:27:58.187Z,13.70
2022-11-03T07:38:10.037Z,21.20
2022-11-03T07:48:24.546Z,14.00
2022-11-03T07:58:41.305Z,9.90
2022-11-03T08:08:45.696Z,6.80
2022-11-03T08:18:49.649Z,7.30
2022-11-03T08:28:53.673Z,7.10
2022-11-03T08:38:57.393Z,6.20
2022-11-03T08:49:01.472Z,6.50
2022-11-03T08:59:05.221Z,6.60
2022-11-03T09:19:32.619Z,4.90
2022-11-03T09:29:58.321Z,3.00
2022-11-03T09:40:00.216Z,3.00
2022-11-03T09:50:05.508Z,3.00
2022-11-03T10:00:21.260Z,2.70
2022-11-03T10:10:26.372Z,3.10
2022-11-03T10:20:30.024Z,3.50
2022-11-03T10:30:45.290Z,2.60
2022-11-03T10:40:55.967Z,3.70
2022-11-03T10:50:59.947Z,3.70
2022-11-03T11:01:04.370Z,3.30
2022-11-03T11:11:08.604Z,2.90
2022-11-03T11:21:15.577Z,2.60
2022-11-03T11:31:30.352Z,2.70
2022-11-03T11:42:12.723Z,2.30
2022-11-03T11:52:19.153Z,2.90
2022-11-03T12:02:30.484Z,2.50
2022-11-03T12:12:34.355Z,3.10
2022-11-03T12:22:43.605Z,2.80
2022-11-03T12:32:48.148Z,2.30
2022-11-03T12:42:52.410Z,2.40
2022-11-03T12:52:56.169Z,2.90
2022-11-03T13:02:59.957Z,2.40
2022-11-03T13:13:04.352Z,2.80
2022-11-03T13:23:08.867Z,2.80
2022-11-03T13:33:13.092Z,2.60
2022-11-03T13:43:17.376Z,2.90
2022-11-03T14:14:11.277Z,2.00
2022-11-03T14:24:15.727Z,2.50
2022-11-03T14:34:20.093Z,4.00
2022-11-03T14:44:24.593Z,3.30
2022-11-03T14:54:29.902Z,2.90
2022-11-03T15:04:33.978Z,2.50
2022-11-03T15:14:38.261Z,10.80
2022-11-03T15:35:07.684Z,10.50
2022-11-03T15:45:16.160Z,9.80
2022-11-03T15:55:20.455Z,20.00
2022-11-03T16:05:25.459Z,10.10
2022-11-03T16:15:29.405Z,11.00
2022-11-03T16:25:33.422Z,10.50
2022-11-03T16:35:37.660Z,13.10
2022-11-03T16:45:42.497Z,21.80
2022-11-03T16:55:48.984Z,26.20
2022-11-03T17:05:53.070Z,29.40
2022-11-03T17:15:58.280Z,27.90
2022-11-03T17:26:03.612Z,23.60
2022-11-03T17:36:08.960Z,29.50
2022-11-03T17:46:13.648Z,36.10
2022-11-03T17:56:34.944Z,41.20
2022-11-03T18:06:40.829Z,38.30
2022-11-03T18:16:47.978Z,41.60
2022-11-03T18:26:52.073Z,33.10
2022-11-03T18:36:56.751Z,38.70
2022-11-03T18:47:12.372Z,41.30
2022-11-03T18:57:22.405Z,41.80
2022-11-03T19:07:30.873Z,43.30
2022-11-03T19:17:37.144Z,43.60
2022-11-03T19:27:46.473Z,41.00
2022-11-03T19:38:00.485Z,45.50
2022-11-03T19:58:31.989Z,48.20
2022-11-03T20:08:39.474Z,49.60
2022-11-03T20:18:44.919Z,48.90
2022-11-03T20:28:51.158Z,52.20
2022-11-03T20:38:59.819Z,50.30
2022-11-03T20:49:05.025Z,50.70
2022-11-03T20:59:12.700Z,48.10
2022-11-03T21:09:18.652Z,45.10
2022-11-03T21:19:58.819Z,50.30
2022-11-03T21:30:03.707Z,47.70
2022-11-03T21:40:08.884Z,45.40
2022-11-03T21:50:12.546Z,49.10
2022-11-03T22:00:17.350Z,48.70
2022-11-03T22:10:21.334Z,44.40
2022-11-03T22:20:43.717Z,52.60
2022-11-03T22:31:07.232Z,41.80
2022-11-03T22:41:43.342Z,48.30
2022-11-03T22:51:47.216Z,38.90
2022-11-03T23:01:53.708Z,39.70
2022-11-03T23:11:57.941Z,36.90
2022-11-03T23:22:02.302Z,32.50
2022-11-03T23:32:06.265Z,32.20
2022-11-03T23:42:10.138Z,29.90
2022-11-03T23:52:13.915Z,29.00
